Terminal Aerodrome Forecast
Issued by NWS

Home | Current Version | Previous Version | Text Only | Print | Product List | Glossary On
Versions: 1 2 3 4 5 6 7 8 9 10
312
FTUS45 KVEF 251741
TAFEED
TAF
KEED 251741Z 2518/2618 01015G26KT P6SM SCT250
     FM260300 36010KT P6SM SKC
     FM260600 28011KT P6SM SKC=

USA.gov is the U.S. government's official web portal to all federal, state and local government web resources and services.